METAR AND TAF INFORMATION
METAR FOR SKBQ
ADDS - METARS form results

(0842 UTC 27 April 2018)
Data provider http://aviationweather.gov/adds/metars/
 
METAR text: SKBQ 270800Z VRB02KT 8000 VCFG SCT012 BKN200 26/24 A2980
Conditions at: SKBQ (BARRANQUILLA/ERN, CO) observed 0800 UTC 27 April 2018
Temperature: 26.0°C (79°F)
Dewpoint: 24.0°C (75°F) [RH = 89%]
Pressure (altimeter): 29.80 inches Hg (1009.2 mb)
Winds: variable direction winds at 2 MPH (2 knots; 1.0 m/s)
Visibility: 5 miles (8 km)
Ceiling: 20000 feet AGL
Clouds: scattered clouds at 1200 feet AGL
broken clouds at 20000 feet AGL
Weather: VCFG  (fog in vicinity)

Forecast for: SKBQ (BARRANQUILLA/ERN, CO)
Text: TAF SKBQ 270500Z 2706/2806 35008KT 9999 FEW015 SCT090
Forecast period: 0600 UTC 27 April 2018 to 0600 UTC 28 April 2018
Forecast type: FROM: standard forecast or significant change
Winds: from the N (350 degrees) at 9 MPH (8 knots; 4.2 m/s)
Visibility: 6 or more miles (10+ km)
Clouds: few clouds at 1500 feet AGL
scattered clouds at 9000 feet AGL
Weather: no significant weather forecast for this period
Forecast for: SKBQ (BARRANQUILLA/ERN, CO)
Text: TAF SKBQ 270500Z 2706/2806 35008KT 9999 FEW015 SCT090
Forecast period: 0600 UTC 27 April 2018 to 0600 UTC 28 April 2018
Forecast type: FROM: standard forecast or significant change
Winds: from the N (350 degrees) at 9 MPH (8 knots; 4.2 m/s)
Visibility: 6 or more miles (10+ km)
Clouds: few clouds at 1500 feet AGL
scattered clouds at 9000 feet AGL
Weather: no significant weather forecast for this period
Forecast for: SKBQ (BARRANQUILLA/ERN, CO)
Text: TAF SKBQ 270500Z 2706/2806 35008KT 9999 FEW015 SCT090
Forecast period: 0900 to 1300 UTC 27 April 2018
Forecast type: TEMPORARY: The following changes expected for less than half the time period
Visibility: 2.49 miles (4.01 km)
Clouds: scattered clouds at 1000 feet AGL
Weather: BR  (mist)
Forecast for: SKBQ (BARRANQUILLA/ERN, CO)
Text: TAF SKBQ 270500Z 2706/2806 35008KT 9999 FEW015 SCT090
Forecast period: 0900 to 1300 UTC 27 April 2018
Forecast type: TEMPORARY: The following changes expected for less than half the time period
Visibility: 2.49 miles (4.01 km)
Clouds: scattered clouds at 1000 feet AGL
Weather: BR  (mist)
Forecast for: SKBQ (BARRANQUILLA/ERN, CO)
Text: TAF SKBQ 270500Z 2706/2806 35008KT 9999 FEW015 SCT090
Forecast period: 2000 to 2300 UTC 27 April 2018
Forecast type: TEMPORARY: The following changes expected for less than half the time period
Visibility: 4 miles (7 km)
Clouds: scattered clouds at 1500 feet AGL
Weather: RA  (rain)
Forecast for: SKBQ (BARRANQUILLA/ERN, CO)
Text: TAF SKBQ 270500Z 2706/2806 35008KT 9999 FEW015 SCT090
Forecast period: 2000 to 2300 UTC 27 April 2018
Forecast type: TEMPORARY: The following changes expected for less than half the time period
Visibility: 4 miles (7 km)
Clouds: scattered clouds at 1500 feet AGL
Weather: RA  (rain)

 AIRPORT MAP

 RUNWAY INFORMATION
Runway 05 Runway length 9842 ft Runway width 148 ft
Runway elevation 98 ft Runway displaced threshold 0 ft Runway heading 40
Runway 23 Runway length 9842 ft Runway width 148 ft
Runway elevation 98 ft Runway displaced threshold 0 ft Runway heading 220

 AIRPORT FREQUENCIES
Type APP Name BARRANQUIL Frequency 119.1 MHZ
Type ATIS Name ATIS Frequency 113.7 MHZ
Type GND Name GND Frequency 121.9 MHZ
Type RDO Name BARRANQUIL Frequency 348.8 MHZ
Type TWR Name TWR Frequency 118.1 MHZ

 AIRPORT NEAR NAVIGATION AIDS
Type NDB Name Barranquilla Frequency 264 KHZ
Type VOR-DME Name Barranquilla Frequency 113700 KHZ



Powered by Virtual Airlines Manager [v2.6.2]